createdAt,value
2018-07-28T00:00:32.465Z,0.00
2018-07-28T00:01:53.510Z,0.00
2018-07-28T00:02:32.520Z,0.00
2018-07-28T00:03:32.546Z,0.00
2018-07-28T00:04:32.573Z,0.00
2018-07-28T00:05:32.597Z,0.00
2018-07-28T00:06:32.622Z,0.00
2018-07-28T00:07:53.669Z,0.00
2018-07-28T00:08:32.677Z,0.00
2018-07-28T00:09:32.704Z,0.00
2018-07-28T00:10:32.729Z,0.00
2018-07-28T00:11:32.756Z,0.00
2018-07-28T00:12:32.781Z,0.00
2018-07-28T00:13:53.822Z,0.00
2018-07-28T00:14:32.832Z,0.00
2018-07-28T00:15:32.857Z,0.00
2018-07-28T00:16:32.885Z,0.00
2018-07-28T00:17:32.909Z,0.00
2018-07-28T00:18:32.936Z,0.00
2018-07-28T00:19:53.981Z,0.00
2018-07-28T00:20:32.990Z,0.00
2018-07-28T00:21:33.015Z,0.00
2018-07-28T00:22:33.042Z,0.00
2018-07-28T00:23:33.066Z,0.00
2018-07-28T00:24:33.090Z,0.00
2018-07-28T00:25:54.132Z,0.00
2018-07-28T00:26:33.142Z,0.00
2018-07-28T00:27:33.170Z,0.00
2018-07-28T00:28:33.193Z,0.00
2018-07-28T00:29:33.223Z,0.00
2018-07-28T00:30:33.250Z,0.00
2018-07-28T00:31:54.290Z,0.00
2018-07-28T00:32:33.298Z,0.00
2018-07-28T00:33:33.323Z,0.00
2018-07-28T00:34:33.350Z,0.00
2018-07-28T00:35:33.376Z,0.00
2018-07-28T00:36:33.400Z,0.00
2018-07-28T00:37:54.443Z,0.00
2018-07-28T00:38:33.453Z,0.00
2018-07-28T00:39:33.479Z,0.00
2018-07-28T00:40:33.509Z,0.00
2018-07-28T00:41:33.535Z,0.00
2018-07-28T00:42:33.559Z,0.00
2018-07-28T00:43:54.603Z,0.00
2018-07-28T00:44:33.609Z,0.00
2018-07-28T00:45:33.633Z,0.00
2018-07-28T00:46:33.668Z,0.00
2018-07-28T00:47:33.686Z,0.00
2018-07-28T00:48:33.712Z,0.00
2018-07-28T00:49:54.757Z,0.00
2018-07-28T00:50:33.768Z,0.00
2018-07-28T00:51:33.793Z,0.00
2018-07-28T00:52:33.813Z,0.00
2018-07-28T00:53:33.842Z,0.00
2018-07-28T00:54:33.868Z,0.00
2018-07-28T00:55:54.911Z,0.00
2018-07-28T00:56:33.920Z,0.00
2018-07-28T00:57:33.949Z,0.00
2018-07-28T00:58:33.974Z,0.00
2018-07-28T00:59:34.000Z,0.00
2018-07-28T01:00:34.023Z,0.00
2018-07-28T01:01:55.064Z,0.00
2018-07-28T01:02:34.078Z,0.00
2018-07-28T01:03:34.101Z,0.00
2018-07-28T01:04:34.127Z,0.00
2018-07-28T01:05:34.152Z,0.00
2018-07-28T01:06:34.180Z,0.00
2018-07-28T01:07:55.228Z,0.00
2018-07-28T01:08:34.234Z,0.00
2018-07-28T01:09:34.258Z,0.00
2018-07-28T01:10:34.286Z,0.00
2018-07-28T01:11:34.311Z,0.00
2018-07-28T01:12:34.334Z,0.00
2018-07-28T01:13:55.375Z,0.00
2018-07-28T01:14:34.384Z,0.00
2018-07-28T01:15:34.411Z,0.00
2018-07-28T01:16:34.439Z,0.00
2018-07-28T01:17:34.469Z,0.00
2018-07-28T01:18:34.490Z,0.00
2018-07-28T01:19:55.532Z,0.00
2018-07-28T01:20:34.539Z,0.00
2018-07-28T01:21:34.574Z,0.00
2018-07-28T01:22:34.597Z,0.00
2018-07-28T01:23:34.618Z,0.00
2018-07-28T01:24:34.646Z,0.00
2018-07-28T01:25:55.693Z,0.00
2018-07-28T01:26:34.693Z,0.00
2018-07-28T01:27:34.722Z,0.00
2018-07-28T01:28:34.749Z,0.00
2018-07-28T01:29:34.776Z,0.00
2018-07-28T01:30:34.805Z,0.00
2018-07-28T01:31:55.850Z,0.00
2018-07-28T01:32:34.854Z,0.00
2018-07-28T01:33:34.880Z,0.00
2018-07-28T01:34:34.902Z,0.00
2018-07-28T01:35:34.929Z,0.00
2018-07-28T01:36:34.956Z,0.00
2018-07-28T01:37:55.999Z,0.00
2018-07-28T01:38:35.009Z,0.00
2018-07-28T01:39:35.038Z,0.00
2018-07-28T01:40:35.060Z,0.00
2018-07-28T01:41:35.085Z,0.00
2018-07-28T01:42:35.111Z,0.00
2018-07-28T01:43:56.156Z,0.00
2018-07-28T01:44:35.160Z,0.00
2018-07-28T01:45:35.187Z,0.00
2018-07-28T01:46:35.212Z,0.00
2018-07-28T01:47:35.241Z,0.00
2018-07-28T01:48:35.269Z,0.00
2018-07-28T01:49:56.311Z,0.00
2018-07-28T01:50:35.318Z,0.00
2018-07-28T01:51:35.347Z,0.00
2018-07-28T01:52:35.366Z,0.00
2018-07-28T01:53:35.393Z,0.00
2018-07-28T01:54:35.420Z,0.00
2018-07-28T01:55:56.463Z,0.00
2018-07-28T01:56:35.470Z,0.00
2018-07-28T01:57:35.497Z,0.00
2018-07-28T01:58:35.527Z,0.00
2018-07-28T01:59:35.551Z,0.00
2018-07-28T02:00:35.576Z,0.00
2018-07-28T02:01:56.624Z,0.00
2018-07-28T02:02:35.631Z,0.00
2018-07-28T02:03:35.655Z,0.00
2018-07-28T02:04:35.677Z,0.00
2018-07-28T02:05:35.704Z,0.00
2018-07-28T02:06:35.729Z,0.00
2018-07-28T02:07:56.773Z,0.00
2018-07-28T02:08:35.781Z,0.00
2018-07-28T02:09:35.808Z,0.00
2018-07-28T02:10:35.835Z,0.00
2018-07-28T02:11:35.861Z,0.00
2018-07-28T02:12:35.885Z,0.00
2018-07-28T02:13:56.940Z,0.00
2018-07-28T02:14:35.938Z,0.00
2018-07-28T02:15:35.964Z,0.00
2018-07-28T02:16:35.987Z,0.00
2018-07-28T02:17:36.013Z,0.00
2018-07-28T02:18:36.039Z,0.00
2018-07-28T02:19:57.085Z,0.00
2018-07-28T02:20:36.095Z,0.00
2018-07-28T02:21:36.119Z,0.00
2018-07-28T02:22:36.145Z,0.00
2018-07-28T02:23:36.172Z,0.00
2018-07-28T02:24:36.195Z,0.00
2018-07-28T02:25:57.241Z,0.00
2018-07-28T02:26:36.247Z,0.00
2018-07-28T02:27:36.271Z,0.00
2018-07-28T02:28:36.297Z,0.00
2018-07-28T02:29:36.322Z,0.00
2018-07-28T02:30:36.348Z,0.00
2018-07-28T02:31:57.392Z,0.00
2018-07-28T02:32:36.403Z,0.00
2018-07-28T02:33:36.428Z,0.00
2018-07-28T02:34:36.458Z,0.00
2018-07-28T02:35:36.483Z,0.00
2018-07-28T02:36:36.504Z,0.00
2018-07-28T02:37:57.548Z,0.00
2018-07-28T02:38:36.555Z,0.00
2018-07-28T02:39:36.581Z,0.00
2018-07-28T02:40:36.616Z,0.00
2018-07-28T02:41:36.635Z,0.00
2018-07-28T02:42:36.663Z,0.00
2018-07-28T02:43:57.703Z,0.00
2018-07-28T02:44:36.711Z,0.00
2018-07-28T02:45:36.741Z,0.00
2018-07-28T02:46:36.763Z,0.00
2018-07-28T02:47:36.789Z,0.00
2018-07-28T02:48:36.812Z,0.00
2018-07-28T02:49:57.856Z,0.00
2018-07-28T02:50:36.866Z,0.00
2018-07-28T02:51:36.895Z,0.00
2018-07-28T02:52:36.919Z,0.00
2018-07-28T02:53:36.944Z,0.00
2018-07-28T02:54:36.969Z,0.00
2018-07-28T02:55:58.015Z,0.00
2018-07-28T02:56:37.019Z,0.00
2018-07-28T02:57:37.043Z,0.00
2018-07-28T02:58:37.074Z,0.00
2018-07-28T02:59:37.097Z,0.00
2018-07-28T03:00:37.123Z,0.00
2018-07-28T03:01:58.168Z,0.00
2018-07-28T03:02:37.177Z,0.00
2018-07-28T03:03:37.201Z,0.00
2018-07-28T03:04:37.229Z,0.00
2018-07-28T03:05:37.252Z,0.00
2018-07-28T03:06:37.278Z,0.00
2018-07-28T03:07:58.320Z,0.00
2018-07-28T03:08:37.329Z,0.00
2018-07-28T03:09:37.355Z,0.00
2018-07-28T03:10:37.381Z,0.00
2018-07-28T03:11:37.408Z,0.00
2018-07-28T03:12:37.430Z,0.00
2018-07-28T03:13:58.475Z,0.00
2018-07-28T03:14:37.484Z,0.00
2018-07-28T03:15:37.509Z,0.00
2018-07-28T03:16:37.532Z,0.00
2018-07-28T03:17:37.559Z,0.00
2018-07-28T03:18:37.586Z,0.00
2018-07-28T03:19:58.628Z,0.00
2018-07-28T03:20:37.637Z,0.00
2018-07-28T03:21:37.663Z,0.00
2018-07-28T03:22:37.690Z,0.00
2018-07-28T03:23:37.715Z,0.00
2018-07-28T03:24:37.740Z,0.00
2018-07-28T03:25:58.784Z,0.00
2018-07-28T03:26:37.792Z,0.00
2018-07-28T03:27:37.816Z,0.00
2018-07-28T03:28:37.843Z,0.00
2018-07-28T03:29:37.871Z,0.00
2018-07-28T03:30:37.897Z,0.00
2018-07-28T03:31:58.939Z,0.00
2018-07-28T03:32:37.946Z,0.00
2018-07-28T03:33:37.972Z,0.00
2018-07-28T03:34:38.000Z,0.00
2018-07-28T03:35:38.025Z,5.63
2018-07-28T03:36:38.048Z,5.63
2018-07-28T03:37:59.090Z,5.63
2018-07-28T03:38:38.101Z,5.63
2018-07-28T03:39:38.128Z,5.63
2018-07-28T03:40:38.153Z,5.63
2018-07-28T03:41:38.178Z,5.63
2018-07-28T03:42:38.206Z,5.63
2018-07-28T03:43:59.247Z,5.63
2018-07-28T03:44:38.255Z,11.25
2018-07-28T03:45:38.282Z,11.25
2018-07-28T03:46:38.305Z,11.25
2018-07-28T03:47:38.331Z,11.25
2018-07-28T03:48:38.355Z,11.25
2018-07-28T03:49:59.401Z,11.25
2018-07-28T03:50:38.409Z,16.88
2018-07-28T03:51:38.434Z,16.88
2018-07-28T03:52:38.460Z,16.88
2018-07-28T03:53:38.492Z,16.88
2018-07-28T03:54:38.517Z,16.88
2018-07-28T03:55:59.558Z,22.50
2018-07-28T03:56:38.629Z,22.50
2018-07-28T03:57:38.588Z,22.50
2018-07-28T03:58:38.615Z,22.50
2018-07-28T03:59:38.642Z,28.13
2018-07-28T04:00:38.666Z,28.13
2018-07-28T04:01:59.709Z,28.13
2018-07-28T04:02:38.719Z,33.75
2018-07-28T04:03:38.746Z,33.75
2018-07-28T04:04:38.767Z,39.38
2018-07-28T04:05:38.796Z,45.00
2018-07-28T04:06:38.829Z,50.63
2018-07-28T04:07:59.865Z,61.88
2018-07-28T04:08:38.870Z,73.13
2018-07-28T04:09:38.896Z,78.75
2018-07-28T04:10:38.924Z,78.75
2018-07-28T04:11:38.956Z,78.75
2018-07-28T04:12:38.979Z,78.75
2018-07-28T04:14:00.020Z,84.38
2018-07-28T04:14:39.033Z,84.38
2018-07-28T04:15:39.055Z,90.00
2018-07-28T04:16:39.078Z,95.63
2018-07-28T04:17:39.111Z,95.63
2018-07-28T04:18:39.131Z,95.63
2018-07-28T04:20:00.178Z,101.25
2018-07-28T04:20:39.190Z,106.88
2018-07-28T04:21:39.210Z,112.50
2018-07-28T04:22:39.237Z,118.13
2018-07-28T04:23:39.268Z,123.75
2018-07-28T04:24:39.293Z,129.38
2018-07-28T04:26:00.337Z,129.38
2018-07-28T04:26:39.346Z,129.38
2018-07-28T04:27:39.376Z,135.00
2018-07-28T04:28:39.440Z,140.63
2018-07-28T04:29:39.425Z,140.63
2018-07-28T04:30:39.453Z,146.25
2018-07-28T04:32:00.496Z,151.88
2018-07-28T04:32:39.511Z,151.88
2018-07-28T04:33:39.535Z,157.50
2018-07-28T04:34:39.575Z,163.13
2018-07-28T04:35:39.594Z,174.38
2018-07-28T04:36:39.617Z,185.63
2018-07-28T04:38:00.668Z,191.25
2018-07-28T04:38:39.672Z,196.88
2018-07-28T04:39:39.699Z,202.50
2018-07-28T04:40:39.726Z,208.13
2018-07-28T04:41:39.753Z,213.75
2018-07-28T04:42:39.781Z,225.00
2018-07-28T04:44:00.870Z,230.63
2018-07-28T04:44:39.841Z,241.88
2018-07-28T04:45:39.867Z,253.13
2018-07-28T04:46:39.896Z,270.00
2018-07-28T04:47:39.927Z,292.50
2018-07-28T04:48:39.952Z,315.00
2018-07-28T04:50:00.999Z,331.88
2018-07-28T04:50:40.007Z,343.13
2018-07-28T04:51:40.035Z,343.13
2018-07-28T04:52:40.069Z,326.25
2018-07-28T04:53:40.092Z,320.63
2018-07-28T04:54:40.122Z,337.50
2018-07-28T04:56:01.168Z,343.13
2018-07-28T04:56:40.180Z,337.50
2018-07-28T04:57:40.209Z,331.88
2018-07-28T04:58:40.242Z,337.50
2018-07-28T04:59:40.268Z,337.50
2018-07-28T05:00:40.296Z,337.50
2018-07-28T05:02:01.343Z,337.50
2018-07-28T05:02:40.357Z,343.13
2018-07-28T05:03:40.385Z,348.75
2018-07-28T05:04:40.413Z,348.75
2018-07-28T05:05:40.442Z,354.38
2018-07-28T05:06:40.473Z,360.00
2018-07-28T05:08:01.520Z,360.00
2018-07-28T05:08:40.530Z,360.00
2018-07-28T05:09:40.559Z,365.63
2018-07-28T05:10:40.589Z,371.25
2018-07-28T05:11:40.619Z,388.13
2018-07-28T05:12:40.651Z,393.75
2018-07-28T05:14:01.701Z,416.25
2018-07-28T05:14:40.711Z,438.75
2018-07-28T05:15:40.741Z,455.63
2018-07-28T05:16:40.771Z,461.25
2018-07-28T05:17:40.799Z,455.63
2018-07-28T05:18:40.834Z,399.38
2018-07-28T05:20:02.025Z,337.50
2018-07-28T05:20:40.892Z,309.38
2018-07-28T05:21:40.922Z,292.50
2018-07-28T05:22:40.953Z,286.88
2018-07-28T05:23:41.001Z,275.63
2018-07-28T05:24:41.013Z,270.00
2018-07-28T05:26:02.064Z,253.13
2018-07-28T05:26:41.075Z,247.50
2018-07-28T05:27:41.104Z,241.88
2018-07-28T05:28:41.133Z,230.63
2018-07-28T05:29:41.201Z,219.38
2018-07-28T05:30:41.195Z,213.75
2018-07-28T05:32:02.245Z,213.75
2018-07-28T05:32:41.257Z,213.75
2018-07-28T05:33:41.286Z,213.75
2018-07-28T05:34:41.317Z,213.75
2018-07-28T05:35:41.348Z,213.75
2018-07-28T05:36:41.374Z,219.38
2018-07-28T05:38:02.422Z,225.00
2018-07-28T05:38:41.435Z,230.63
2018-07-28T05:39:41.465Z,236.25
2018-07-28T05:40:41.495Z,241.88
2018-07-28T05:41:41.528Z,247.50
2018-07-28T05:42:41.557Z,202.50
2018-07-28T05:44:02.606Z,174.38
2018-07-28T05:44:41.617Z,168.75
2018-07-28T05:45:41.648Z,180.00
2018-07-28T05:46:41.676Z,180.00
2018-07-28T05:47:41.704Z,185.63
2018-07-28T05:48:41.737Z,270.00
2018-07-28T05:50:02.844Z,230.63
2018-07-28T05:50:41.795Z,202.50
2018-07-28T05:51:41.826Z,298.13
2018-07-28T05:52:41.856Z,326.25
2018-07-28T05:53:41.886Z,343.13
2018-07-28T05:54:41.918Z,405.00
2018-07-28T05:56:02.967Z,202.50
2018-07-28T05:56:41.976Z,613.13
2018-07-28T05:57:42.003Z,523.13
2018-07-28T05:58:42.034Z,247.50
2018-07-28T05:59:42.063Z,185.63
2018-07-28T06:00:42.091Z,185.63
2018-07-28T06:02:03.142Z,230.63
2018-07-28T06:02:42.170Z,506.25
2018-07-28T06:03:42.184Z,466.88
2018-07-28T06:04:42.219Z,511.88
2018-07-28T06:05:42.243Z,826.88
2018-07-28T06:06:42.273Z,956.25
2018-07-28T06:08:03.319Z,961.88
2018-07-28T06:08:42.331Z,922.50
2018-07-28T06:09:42.360Z,956.25
2018-07-28T06:10:42.396Z,973.13
2018-07-28T06:11:42.422Z,990.00
2018-07-28T06:12:42.454Z,1029.38
2018-07-28T06:14:03.524Z,1012.50
2018-07-28T06:14:42.515Z,978.75
2018-07-28T06:15:42.546Z,1012.50
2018-07-28T06:16:42.579Z,1035.00
2018-07-28T06:17:42.602Z,1001.25
2018-07-28T06:18:42.635Z,1012.50
2018-07-28T06:20:03.686Z,1023.75
2018-07-28T06:20:42.696Z,1006.88
2018-07-28T06:21:42.727Z,1006.88
2018-07-28T06:22:42.760Z,956.25
2018-07-28T06:23:42.788Z,961.88
2018-07-28T06:24:42.819Z,967.50
2018-07-28T06:26:03.937Z,905.63
2018-07-28T06:26:42.883Z,630.00
2018-07-28T06:27:42.916Z,365.63
2018-07-28T06:28:42.948Z,286.88
2018-07-28T06:29:42.980Z,270.00
2018-07-28T06:30:43.012Z,275.63
2018-07-28T06:32:04.062Z,298.13
2018-07-28T06:32:43.072Z,466.88
2018-07-28T06:33:43.105Z,675.00
2018-07-28T06:34:43.139Z,686.25
2018-07-28T06:35:43.169Z,528.75
2018-07-28T06:36:43.196Z,241.88
2018-07-28T06:38:04.249Z,196.88
2018-07-28T06:38:43.259Z,191.25
2018-07-28T06:39:43.293Z,191.25
2018-07-28T06:40:43.323Z,191.25
2018-07-28T06:41:43.355Z,185.63
2018-07-28T06:42:43.391Z,185.63
2018-07-28T06:44:04.436Z,185.63
2018-07-28T06:44:43.448Z,180.00
2018-07-28T06:45:43.480Z,180.00
2018-07-28T06:46:43.508Z,180.00
2018-07-28T06:47:43.543Z,180.00
2018-07-28T06:48:43.569Z,180.00
2018-07-28T06:50:04.619Z,180.00
2018-07-28T06:50:43.633Z,174.38
2018-07-28T06:51:43.666Z,180.00
2018-07-28T06:52:43.693Z,180.00
2018-07-28T06:53:43.757Z,180.00
2018-07-28T06:54:43.754Z,180.00
2018-07-28T06:56:04.815Z,185.63
2018-07-28T06:56:43.812Z,185.63
2018-07-28T06:57:43.843Z,185.63
2018-07-28T06:58:43.876Z,180.00
2018-07-28T06:59:43.905Z,180.00
2018-07-28T07:00:43.933Z,185.63
2018-07-28T07:02:04.984Z,185.63
2018-07-28T07:02:43.995Z,191.25
2018-07-28T07:03:44.028Z,191.25
2018-07-28T07:04:44.063Z,180.00
2018-07-28T07:05:44.087Z,174.38
2018-07-28T07:06:44.117Z,174.38
2018-07-28T07:08:05.174Z,163.13
2018-07-28T07:08:44.174Z,157.50
2018-07-28T07:09:44.204Z,146.25
2018-07-28T07:10:44.236Z,140.63
2018-07-28T07:11:44.328Z,135.00
2018-07-28T07:12:44.298Z,129.38
2018-07-28T07:14:05.342Z,123.75
2018-07-28T07:14:44.355Z,118.13
2018-07-28T07:15:44.383Z,112.50
2018-07-28T07:16:44.412Z,106.88
2018-07-28T07:17:44.442Z,101.25
2018-07-28T07:18:44.475Z,95.63
2018-07-28T07:20:05.522Z,95.63
2018-07-28T07:20:44.533Z,90.00
2018-07-28T07:21:44.565Z,90.00
2018-07-28T07:22:44.593Z,84.38
2018-07-28T07:23:44.620Z,84.38
2018-07-28T07:24:44.693Z,78.75
2018-07-28T07:26:05.698Z,73.13
2018-07-28T07:26:44.710Z,73.13
2018-07-28T07:27:44.743Z,67.50
2018-07-28T07:28:44.769Z,67.50
2018-07-28T07:29:44.803Z,67.50
2018-07-28T07:30:44.829Z,61.88
2018-07-28T07:32:05.888Z,61.88
2018-07-28T07:32:44.886Z,61.88
2018-07-28T07:33:44.918Z,56.25
2018-07-28T07:34:44.952Z,56.25
2018-07-28T07:35:44.972Z,56.25
2018-07-28T07:36:45.002Z,50.63
2018-07-28T07:38:06.049Z,50.63
2018-07-28T07:38:45.061Z,50.63
2018-07-28T07:39:45.097Z,50.63
2018-07-28T07:40:45.142Z,50.63
2018-07-28T07:41:45.216Z,50.63
2018-07-28T07:42:45.193Z,50.63
2018-07-28T07:44:06.223Z,50.63
2018-07-28T07:44:45.235Z,50.63
2018-07-28T07:45:45.262Z,50.63
2018-07-28T07:46:45.290Z,50.63
2018-07-28T07:47:45.320Z,50.63
2018-07-28T07:48:45.350Z,50.63
2018-07-28T07:50:06.395Z,50.63
2018-07-28T07:50:45.407Z,56.25
2018-07-28T07:51:45.437Z,56.25
2018-07-28T07:52:45.465Z,56.25
2018-07-28T07:53:45.511Z,56.25
2018-07-28T07:54:45.523Z,56.25
2018-07-28T07:56:06.573Z,61.88
2018-07-28T07:56:45.578Z,61.88
2018-07-28T07:57:45.609Z,67.50
2018-07-28T07:58:45.638Z,67.50
2018-07-28T07:59:45.666Z,73.13
2018-07-28T08:00:45.696Z,73.13
2018-07-28T08:02:06.742Z,78.75
2018-07-28T08:02:45.754Z,84.38
2018-07-28T08:03:45.783Z,90.00
2018-07-28T08:04:45.819Z,95.63
2018-07-28T08:05:45.837Z,95.63
2018-07-28T08:06:45.867Z,101.25
2018-07-28T08:08:06.911Z,106.88
2018-07-28T08:08:45.920Z,106.88
2018-07-28T08:09:45.950Z,106.88
2018-07-28T08:10:45.979Z,106.88
2018-07-28T08:11:46.011Z,106.88
2018-07-28T08:12:46.061Z,112.50
2018-07-28T08:14:07.094Z,112.50
2018-07-28T08:14:46.094Z,112.50
2018-07-28T08:15:46.121Z,112.50
2018-07-28T08:16:46.150Z,112.50
2018-07-28T08:17:46.181Z,118.13
2018-07-28T08:18:46.205Z,118.13
2018-07-28T08:20:07.253Z,118.13
2018-07-28T08:20:46.262Z,118.13
2018-07-28T08:21:46.293Z,118.13
2018-07-28T08:22:46.319Z,118.13
2018-07-28T08:23:46.351Z,118.13
2018-07-28T08:24:46.378Z,118.13
2018-07-28T08:26:07.427Z,118.13
2018-07-28T08:26:46.484Z,118.13
2018-07-28T08:27:46.467Z,118.13
2018-07-28T08:28:46.493Z,118.13
2018-07-28T08:29:46.523Z,118.13
2018-07-28T08:30:46.547Z,118.13
2018-07-28T08:32:07.599Z,118.13
2018-07-28T08:32:46.606Z,118.13
2018-07-28T08:33:46.635Z,112.50
2018-07-28T08:34:46.667Z,112.50
2018-07-28T08:35:46.695Z,112.50
2018-07-28T08:36:46.725Z,112.50
2018-07-28T08:38:07.766Z,112.50
2018-07-28T08:38:46.777Z,112.50
2018-07-28T08:39:46.804Z,106.88
2018-07-28T08:40:46.837Z,106.88
2018-07-28T08:41:46.861Z,106.88
2018-07-28T08:42:46.889Z,112.50
2018-07-28T08:44:07.939Z,118.13
2018-07-28T08:44:46.952Z,118.13
2018-07-28T08:45:46.976Z,123.75
2018-07-28T08:46:47.005Z,123.75
2018-07-28T08:47:47.034Z,129.38
2018-07-28T08:48:47.080Z,129.38
2018-07-28T08:50:08.106Z,135.00
2018-07-28T08:50:47.141Z,135.00
2018-07-28T08:51:47.188Z,129.38
2018-07-28T08:52:47.175Z,129.38
2018-07-28T08:53:47.202Z,129.38
2018-07-28T08:54:47.256Z,129.38
2018-07-28T08:56:08.279Z,135.00
2018-07-28T08:56:47.289Z,135.00
2018-07-28T08:57:47.317Z,135.00
2018-07-28T08:58:47.350Z,140.63
2018-07-28T08:59:47.372Z,140.63
2018-07-28T09:00:47.401Z,135.00
2018-07-28T09:02:08.449Z,135.00
2018-07-28T09:02:47.457Z,135.00
2018-07-28T09:03:47.488Z,135.00
2018-07-28T09:04:47.514Z,129.38
2018-07-28T09:05:47.545Z,123.75
2018-07-28T09:06:47.574Z,123.75
2018-07-28T09:08:08.620Z,123.75
2018-07-28T09:08:47.630Z,123.75
2018-07-28T09:09:47.660Z,123.75
2018-07-28T09:10:47.688Z,123.75
2018-07-28T09:11:47.718Z,123.75
2018-07-28T09:12:47.743Z,123.75
2018-07-28T09:14:08.789Z,123.75
2018-07-28T09:14:47.801Z,123.75
2018-07-28T09:15:47.830Z,123.75
2018-07-28T09:16:47.857Z,129.38
2018-07-28T09:17:47.888Z,140.63
2018-07-28T09:18:47.916Z,140.63
2018-07-28T09:20:08.958Z,140.63
2018-07-28T09:20:47.970Z,140.63
2018-07-28T09:21:47.997Z,140.63
2018-07-28T09:22:48.029Z,146.25
2018-07-28T09:23:48.056Z,140.63
2018-07-28T09:24:48.085Z,151.88
2018-07-28T09:26:09.130Z,151.88
2018-07-28T09:26:48.141Z,151.88
2018-07-28T09:27:48.170Z,157.50
2018-07-28T09:28:48.195Z,157.50
2018-07-28T09:29:48.229Z,140.63
2018-07-28T09:30:48.253Z,140.63
2018-07-28T09:32:09.308Z,135.00
2018-07-28T09:32:48.313Z,140.63
2018-07-28T09:33:48.341Z,140.63
2018-07-28T09:34:48.371Z,146.25
2018-07-28T09:35:48.395Z,151.88
2018-07-28T09:36:48.453Z,157.50
2018-07-28T09:38:09.469Z,157.50
2018-07-28T09:38:48.480Z,157.50
2018-07-28T09:39:48.509Z,157.50
2018-07-28T09:40:48.537Z,157.50
2018-07-28T09:41:48.565Z,157.50
2018-07-28T09:42:48.595Z,151.88
2018-07-28T09:44:09.642Z,146.25
2018-07-28T09:44:48.652Z,129.38
2018-07-28T09:45:48.681Z,118.13
2018-07-28T09:46:48.711Z,118.13
2018-07-28T09:47:48.737Z,118.13
2018-07-28T09:48:48.769Z,118.13
2018-07-28T09:50:09.811Z,112.50
2018-07-28T09:50:48.821Z,106.88
2018-07-28T09:51:48.851Z,106.88
2018-07-28T09:52:48.881Z,118.13
2018-07-28T09:53:48.910Z,118.13
2018-07-28T09:54:48.936Z,123.75
2018-07-28T09:56:09.993Z,123.75
2018-07-28T09:56:48.992Z,135.00
2018-07-28T09:57:49.023Z,140.63
2018-07-28T09:58:49.050Z,146.25
2018-07-28T09:59:49.079Z,140.63
2018-07-28T10:00:49.107Z,135.00
2018-07-28T10:02:10.153Z,129.38
2018-07-28T10:02:49.162Z,123.75
2018-07-28T10:03:49.199Z,112.50
2018-07-28T10:04:49.222Z,112.50
2018-07-28T10:05:49.253Z,106.88
2018-07-28T10:06:49.289Z,112.50
2018-07-28T10:08:10.327Z,106.88
2018-07-28T10:08:49.332Z,106.88
2018-07-28T10:09:49.361Z,112.50
2018-07-28T10:10:49.387Z,112.50
2018-07-28T10:11:49.418Z,112.50
2018-07-28T10:12:49.445Z,112.50
2018-07-28T10:14:10.492Z,112.50
2018-07-28T10:14:49.503Z,112.50
2018-07-28T10:15:49.533Z,106.88
2018-07-28T10:16:49.560Z,106.88
2018-07-28T10:17:49.590Z,112.50
2018-07-28T10:18:49.618Z,118.13
2018-07-28T10:20:10.667Z,118.13
2018-07-28T10:20:49.672Z,112.50
2018-07-28T10:21:49.700Z,101.25
2018-07-28T10:22:49.777Z,95.63
2018-07-28T10:23:49.760Z,101.25
2018-07-28T10:24:49.787Z,101.25
2018-07-28T10:26:10.834Z,101.25
2018-07-28T10:26:49.844Z,101.25
2018-07-28T10:27:49.874Z,101.25
2018-07-28T10:28:49.901Z,101.25
2018-07-28T10:29:49.929Z,95.63
2018-07-28T10:30:49.957Z,90.00
2018-07-28T10:32:11.004Z,78.75
2018-07-28T10:32:50.013Z,78.75
2018-07-28T10:33:50.073Z,73.13
2018-07-28T10:34:50.096Z,67.50
2018-07-28T10:35:50.099Z,61.88
2018-07-28T10:36:50.127Z,61.88
2018-07-28T10:38:11.174Z,61.88
2018-07-28T10:38:50.188Z,56.25
2018-07-28T10:39:50.212Z,56.25
2018-07-28T10:40:50.236Z,56.25
2018-07-28T10:41:50.266Z,56.25
2018-07-28T10:42:50.293Z,56.25
2018-07-28T10:44:11.350Z,56.25
2018-07-28T10:44:50.350Z,61.88
2018-07-28T10:45:50.381Z,61.88
2018-07-28T10:46:50.407Z,67.50
2018-07-28T10:47:50.437Z,67.50
2018-07-28T10:48:50.467Z,61.88
2018-07-28T10:50:11.512Z,61.88
2018-07-28T10:50:50.521Z,61.88
2018-07-28T10:51:50.558Z,56.25
2018-07-28T10:52:50.577Z,56.25
2018-07-28T10:53:50.603Z,50.63
2018-07-28T10:54:50.631Z,50.63
2018-07-28T10:56:11.681Z,50.63
2018-07-28T10:56:50.689Z,50.63
2018-07-28T10:57:50.718Z,50.63
2018-07-28T10:58:50.744Z,56.25
2018-07-28T10:59:50.777Z,56.25
2018-07-28T11:00:50.801Z,56.25
2018-07-28T11:02:11.848Z,61.88
2018-07-28T11:02:50.862Z,67.50
2018-07-28T11:03:50.884Z,67.50
2018-07-28T11:04:50.911Z,73.13
2018-07-28T11:05:50.942Z,73.13
2018-07-28T11:06:50.969Z,78.75
2018-07-28T11:08:12.017Z,84.38
2018-07-28T11:08:51.026Z,90.00
2018-07-28T11:09:51.056Z,90.00
2018-07-28T11:10:51.082Z,95.63
2018-07-28T11:11:51.108Z,106.88
2018-07-28T11:12:51.136Z,112.50
2018-07-28T11:14:12.181Z,112.50
2018-07-28T11:14:51.193Z,112.50
2018-07-28T11:15:51.218Z,112.50
2018-07-28T11:16:51.247Z,123.75
2018-07-28T11:17:51.276Z,112.50
2018-07-28T11:18:51.314Z,118.13
2018-07-28T11:20:12.352Z,118.13
2018-07-28T11:20:51.361Z,118.13
2018-07-28T11:21:51.389Z,118.13
2018-07-28T11:22:51.418Z,123.75
2018-07-28T11:23:51.449Z,118.13
2018-07-28T11:24:51.471Z,118.13
2018-07-28T11:26:12.530Z,112.50
2018-07-28T11:26:51.533Z,112.50
2018-07-28T11:27:51.560Z,112.50
2018-07-28T11:28:51.586Z,112.50
2018-07-28T11:29:51.614Z,112.50
2018-07-28T11:30:51.641Z,118.13
2018-07-28T11:32:12.687Z,112.50
2018-07-28T11:32:51.697Z,112.50
2018-07-28T11:33:51.725Z,118.13
2018-07-28T11:34:51.753Z,112.50
2018-07-28T11:35:51.791Z,112.50
2018-07-28T11:36:51.812Z,118.13
2018-07-28T11:38:12.858Z,118.13
2018-07-28T11:38:51.869Z,129.38
2018-07-28T11:39:51.894Z,135.00
2018-07-28T11:40:51.923Z,140.63
2018-07-28T11:41:51.950Z,140.63
2018-07-28T11:42:51.978Z,140.63
2018-07-28T11:44:13.029Z,135.00
2018-07-28T11:44:52.041Z,135.00
2018-07-28T11:45:52.114Z,135.00
2018-07-28T11:46:52.096Z,129.38
2018-07-28T11:47:52.121Z,123.75
2018-07-28T11:48:52.149Z,123.75
2018-07-28T11:50:13.198Z,123.75
2018-07-28T11:50:52.207Z,129.38
2018-07-28T11:51:52.234Z,123.75
2018-07-28T11:52:52.261Z,123.75
2018-07-28T11:53:52.288Z,118.13
2018-07-28T11:54:52.317Z,112.50
2018-07-28T11:56:13.364Z,106.88
2018-07-28T11:56:52.374Z,101.25
2018-07-28T11:57:52.405Z,95.63
2018-07-28T11:58:52.434Z,90.00
2018-07-28T11:59:52.459Z,78.75
2018-07-28T12:00:52.485Z,73.13
2018-07-28T12:02:13.534Z,67.50
2018-07-28T12:02:52.542Z,61.88
2018-07-28T12:03:52.570Z,50.63
2018-07-28T12:04:52.597Z,45.00
2018-07-28T12:05:52.628Z,33.75
2018-07-28T12:06:52.656Z,28.13
2018-07-28T12:08:13.707Z,16.88
2018-07-28T12:08:52.713Z,11.25
2018-07-28T12:09:52.744Z,11.25
2018-07-28T12:10:52.772Z,5.63
2018-07-28T12:11:52.796Z,5.63
2018-07-28T12:12:52.823Z,0.00
2018-07-28T12:14:13.868Z,5.63
2018-07-28T12:14:52.890Z,5.63
2018-07-28T12:15:52.910Z,5.63
2018-07-28T12:16:52.937Z,5.63
2018-07-28T12:17:52.966Z,5.63
2018-07-28T12:18:52.994Z,5.63
2018-07-28T12:20:14.041Z,11.25
2018-07-28T12:20:53.055Z,11.25
2018-07-28T12:21:53.080Z,16.88
2018-07-28T12:22:53.106Z,16.88
2018-07-28T12:23:53.174Z,16.88
2018-07-28T12:24:53.158Z,22.50
2018-07-28T12:26:14.205Z,28.13
2018-07-28T12:26:53.215Z,33.75
2018-07-28T12:27:53.245Z,33.75
2018-07-28T12:28:53.272Z,33.75
2018-07-28T12:29:53.300Z,28.13
2018-07-28T12:30:53.347Z,28.13
2018-07-28T12:32:14.379Z,28.13
2018-07-28T12:32:53.382Z,28.13
2018-07-28T12:33:53.409Z,28.13
2018-07-28T12:34:53.443Z,28.13
2018-07-28T12:35:53.466Z,39.38
2018-07-28T12:36:53.496Z,33.75
2018-07-28T12:38:14.539Z,33.75
2018-07-28T12:38:53.548Z,33.75
2018-07-28T12:39:53.577Z,39.38
2018-07-28T12:40:53.610Z,39.38
2018-07-28T12:41:53.634Z,45.00
2018-07-28T12:42:53.662Z,50.63
2018-07-28T12:44:14.707Z,56.25
2018-07-28T12:44:53.713Z,56.25
2018-07-28T12:45:53.742Z,61.88
2018-07-28T12:46:53.770Z,61.88
2018-07-28T12:47:53.804Z,67.50
2018-07-28T12:48:53.827Z,73.13